Time;durP1;ratioP1;P1;durP2;ratioP2;P2;SDS_P1;SDS_P2;PMS_P1;PMS_P2;Temp;Humidity;BMP_temperature;BMP_pressure;BME280_temperature;BME280_humidity;BME280_pressure;Samples;Min_cycle;Max_cycle;Signal;HPM_P1;HPM_P2
2024/01/13 00:02:05;;;;;;;47.87;24.27;;;;;;;0.57;77.58;100057.97;5053116;28;20478;-77
2024/01/13 00:04:33;;;;;;;44.37;23.20;;;;;;;0.61;77.91;100062.81;5052827;28;20849;-77
2024/01/13 00:07:00;;;;;;;38.07;22.60;;;;;;;0.58;77.51;100065.69;5052913;28;20509;-76
2024/01/13 00:09:27;;;;;;;43.70;22.37;;;;;;;0.64;77.25;100070.44;5052701;28;20443;-76
2024/01/13 00:11:53;;;;;;;36.63;20.57;;;;;;;0.63;77.51;100073.16;5052914;28;20451;-77
2024/01/13 00:14:20;;;;;;;45.87;23.57;;;;;;;0.61;77.75;100070.66;5053392;28;20441;-77
2024/01/13 00:16:47;;;;;;;39.47;22.03;;;;;;;0.57;77.51;100078.88;5053073;28;20850;-76
2024/01/13 00:19:14;;;;;;;42.40;22.33;;;;;;;0.64;77.83;100069.63;5051310;28;20439;-76
2024/01/13 00:21:42;;;;;;;45.90;22.93;;;;;;;0.64;77.47;100069.63;5053036;28;20505;-78
2024/01/13 00:24:08;;;;;;;43.17;24.30;;;;;;;0.68;77.07;100071.84;5052456;28;20505;-76
2024/01/13 00:26:35;;;;;;;43.07;22.97;;;;;;;0.67;77.39;100072.81;5052765;28;21019;-76
2024/01/13 00:29:02;;;;;;;40.53;22.87;;;;;;;0.62;77.50;100064.50;5052470;28;20511;-76
2024/01/13 00:31:28;;;;;;;43.50;23.27;;;;;;;0.61;77.24;100070.66;5052312;28;20445;-74
2024/01/13 00:33:55;;;;;;;38.37;22.20;;;;;;;0.55;77.53;100076.38;5052568;28;20872;-76
2024/01/13 00:36:22;;;;;;;38.67;21.30;;;;;;;0.50;77.69;100073.28;5052520;28;20500;-75
2024/01/13 00:38:50;;;;;;;40.90;22.53;;;;;;;0.51;77.98;100074.94;5051994;28;20449;-76
2024/01/13 00:41:17;;;;;;;35.97;20.77;;;;;;;0.49;78.00;100082.06;5052345;28;20435;-74
2024/01/13 00:43:43;;;;;;;37.83;22.57;;;;;;;0.52;77.78;100076.59;5052092;28;20510;-75
2024/01/13 00:46:10;;;;;;;45.47;22.47;;;;;;;0.48;77.38;100069.97;5052259;28;20443;-75
2024/01/13 00:48:37;;;;;;;37.40;20.73;;;;;;;0.53;77.64;100075.66;5052014;28;20448;-75
2024/01/13 00:51:04;;;;;;;40.40;20.53;;;;;;;0.53;77.59;100073.03;5052379;28;20438;-75
2024/01/13 00:53:31;;;;;;;38.27;21.60;;;;;;;0.56;77.45;100072.81;5051788;28;20966;-75
2024/01/13 00:55:59;;;;;;;37.57;21.80;;;;;;;0.57;77.29;100078.88;5052045;28;20435;-74
2024/01/13 00:58:26;;;;;;;38.90;22.03;;;;;;;0.58;77.35;100072.69;5051705;28;20438;-74
2024/01/13 01:00:52;;;;;;;40.30;21.07;;;;;;;0.55;76.97;100065.94;5052033;28;20431;-74
2024/01/13 01:03:19;;;;;;;40.97;22.43;;;;;;;0.59;77.08;100067.34;5051987;28;20712;-73
2024/01/13 01:05:46;;;;;;;40.47;22.07;;;;;;;0.53;77.30;100059.97;5051672;28;20439;-75
2024/01/13 01:08:13;;;;;;;37.90;21.63;;;;;;;0.55;77.46;100060.69;5051337;28;20439;-75
2024/01/13 01:10:40;;;;;;;41.03;22.40;;;;;;;0.56;77.12;100061.53;5051332;28;20448;-75
2024/01/13 01:13:08;;;;;;;37.83;20.50;;;;;;;0.52;77.45;100060.94;5051694;28;20506;-75
2024/01/13 01:15:34;;;;;;;41.63;22.80;;;;;;;0.56;77.68;100062.34;5051900;28;20553;-75
2024/01/13 01:18:01;;;;;;;37.03;22.30;;;;;;;0.45;77.92;100064.97;5051766;28;20476;-75
2024/01/13 01:20:28;;;;;;;41.90;23.40;;;;;;;0.47;77.81;100063.06;5031891;28;20444;-75
2024/01/13 01:22:55;;;;;;;36.83;20.23;;;;;;;0.48;77.76;100061.31;5031801;28;20476;-75
2024/01/13 01:25:21;;;;;;;39.53;22.20;;;;;;;0.47;77.54;100063.06;5031982;28;20454;-75
2024/01/13 01:27:48;;;;;;;47.40;22.17;;;;;;;0.43;77.09;100064.25;5031978;28;20454;-75
2024/01/13 01:30:16;;;;;;;33.97;18.20;;;;;;;0.44;77.02;100058.06;5049738;28;20524;-76
2024/01/13 01:32:43;;;;;;;39.50;20.23;;;;;;;0.47;76.68;100052.63;5052095;28;20435;-74
2024/01/13 01:35:10;;;;;;;34.73;20.40;;;;;;;0.39;76.98;100055.00;5051378;28;20512;-75
2024/01/13 01:37:36;;;;;;;28.13;18.10;;;;;;;0.33;76.50;100050.25;5051721;28;20444;-74
2024/01/13 01:40:04;;;;;;;36.77;20.03;;;;;;;0.32;76.60;100048.56;5051549;28;20493;-76
2024/01/13 01:42:31;;;;;;;32.23;18.93;;;;;;;0.35;76.59;100047.50;5051214;28;20475;-74
2024/01/13 01:44:57;;;;;;;35.10;20.40;;;;;;;0.37;76.24;100045.63;5051580;28;20454;-73
2024/01/13 01:47:28;;;;;;;39.70;19.40;;;;;;;0.42;76.45;100046.94;5051011;28;20509;-77
2024/01/13 01:49:55;;;;;;;31.07;18.17;;;;;;;0.49;75.77;100045.47;5051567;28;20430;-76
2024/01/13 01:52:22;;;;;;;33.17;17.93;;;;;;;0.47;75.04;100042.16;5051592;28;20876;-77
2024/01/13 01:54:48;;;;;;;42.47;19.40;;;;;;;0.50;74.98;100044.56;5051496;28;20496;-76
2024/01/13 01:57:16;;;;;;;31.90;17.10;;;;;;;0.53;74.47;100046.09;5051466;28;20947;-78
2024/01/13 01:59:43;;;;;;;37.17;18.23;;;;;;;0.48;74.80;100038.59;5051774;28;20431;-77
2024/01/13 02:02:11;;;;;;;35.67;18.23;;;;;;;0.52;74.03;100047.88;5051828;28;20445;-77
2024/01/13 02:04:39;;;;;;;35.93;18.90;;;;;;;0.54;74.41;100042.53;5051362;28;20868;-77
2024/01/13 02:07:07;;;;;;;34.43;18.90;;;;;;;0.58;74.15;100039.56;5051137;28;20446;-77
2024/01/13 02:09:34;;;;;;;37.10;18.63;;;;;;;0.66;73.75;100042.41;5051211;28;20442;-78
2024/01/13 02:12:02;;;;;;;50.00;18.50;;;;;;;0.51;72.80;100038.38;5051697;28;20443;-76
2024/01/13 02:14:29;;;;;;;35.37;18.73;;;;;;;0.61;72.74;100039.28;5051385;28;20439;-77
2024/01/13 02:16:54;;;;;;;25.53;15.27;;;;;;;0.52;71.89;100039.22;5051362;28;20551;-78
2024/01/13 02:19:21;;;;;;;28.87;16.30;;;;;;;0.53;72.31;100046.91;5051472;28;20497;-77
2024/01/13 02:21:49;;;;;;;27.33;17.63;;;;;;;0.50;72.98;100048.94;5051113;28;20204;-76
2024/01/13 02:24:16;;;;;;;23.07;14.83;;;;;;;0.50;72.58;100041.94;5051065;28;20487;-72
2024/01/13 02:26:43;;;;;;;27.80;16.53;;;;;;;0.56;72.39;100045.88;5051019;28;20501;-74
2024/01/13 02:29:09;;;;;;;29.70;16.17;;;;;;;0.53;72.10;100053.94;5050830;28;20857;-74
2024/01/13 02:31:36;;;;;;;25.67;16.13;;;;;;;0.53;72.31;100052.13;5050910;28;20431;-74
2024/01/13 02:34:03;;;;;;;25.33;15.47;;;;;;;0.43;71.45;100050.34;5050917;28;20501;-73
2024/01/13 02:36:29;;;;;;;26.33;15.10;;;;;;;0.40;71.48;100035.75;5050878;28;20445;-74
2024/01/13 02:38:57;;;;;;;26.17;15.13;;;;;;;0.39;71.76;100039.31;5051089;28;20492;-73
2024/01/13 02:41:24;;;;;;;26.63;15.90;;;;;;;0.41;71.31;100037.44;5031352;28;21025;-74
2024/01/13 02:43:51;;;;;;;27.37;16.30;;;;;;;0.33;71.45;100038.97;5039212;28;20470;-75
2024/01/13 02:46:18;;;;;;;21.03;14.40;;;;;;;0.33;71.61;100038.97;5054611;28;20508;-76
2024/01/13 02:48:47;;;;;;;24.33;14.77;;;;;;;0.35;71.04;100037.03;5054971;28;20433;-76
2024/01/13 02:51:15;;;;;;;21.70;14.23;;;;;;;0.36;70.56;100029.09;5054316;28;20446;-75
2024/01/13 02:53:42;;;;;;;23.97;14.20;;;;;;;0.32;71.17;100032.91;5054422;28;20447;-76
2024/01/13 02:56:10;;;;;;;21.40;15.33;;;;;;;0.34;71.04;100033.63;5054439;28;20488;-75
2024/01/13 02:58:37;;;;;;;30.07;16.20;;;;;;;0.23;71.23;100023.16;5054445;28;20433;-75
2024/01/13 03:01:06;;;;;;;27.27;15.73;;;;;;;0.19;71.30;100021.72;5054290;28;20447;-76
2024/01/13 03:03:34;;;;;;;23.73;14.20;;;;;;;0.21;70.68;100035.53;5054277;28;20486;-75
2024/01/13 03:06:02;;;;;;;24.90;14.70;;;;;;;0.27;70.22;100040.25;5053783;28;20486;-77
2024/01/13 03:08:28;;;;;;;21.60;13.67;;;;;;;0.20;69.89;100046.09;5053915;28;20451;-76
2024/01/13 03:10:55;;;;;;;23.60;14.67;;;;;;;0.22;70.12;100052.84;5053833;28;20444;-73
2024/01/13 03:13:23;;;;;;;25.80;14.63;;;;;;;0.23;70.03;100059.72;5050336;28;20877;-75
2024/01/13 03:15:50;;;;;;;22.77;13.83;;;;;;;0.25;69.48;100057.84;5054311;28;20431;-74
2024/01/13 03:18:16;;;;;;;26.50;14.73;;;;;;;0.28;69.77;100056.78;5054082;28;20509;-74
2024/01/13 03:20:42;;;;;;;26.37;14.87;;;;;;;0.32;68.72;100066.84;5053949;28;20443;-74
2024/01/13 03:23:09;;;;;;;24.27;14.80;;;;;;;0.36;68.49;100064.84;5053558;28;20534;-74
2024/01/13 03:25:36;;;;;;;20.07;13.20;;;;;;;0.33;68.33;100070.31;5053884;28;20254;-74
2024/01/13 03:28:03;;;;;;;25.87;14.73;;;;;;;0.28;68.29;100078.47;5053577;28;20500;-73
2024/01/13 03:30:31;;;;;;;23.10;13.87;;;;;;;0.32;68.35;100074.69;5053807;28;20887;-74
2024/01/13 03:32:57;;;;;;;23.60;13.47;;;;;;;0.26;68.05;100080.41;5053730;28;20498;-73
2024/01/13 03:35:24;;;;;;;26.10;15.17;;;;;;;0.30;67.79;100084.44;5053544;28;20444;-73
2024/01/13 03:37:51;;;;;;;23.67;15.17;;;;;;;0.31;67.91;100096.53;5044271;28;20840;-74
2024/01/13 03:40:17;;;;;;;24.57;13.23;;;;;;;0.30;68.18;100091.44;5033371;28;20515;-76
2024/01/13 03:42:45;;;;;;;25.23;13.10;;;;;;;0.20;67.71;100093.91;5049628;28;21025;-76
2024/01/13 03:45:12;;;;;;;22.27;13.90;;;;;;;0.29;67.76;100101.06;5053012;28;20439;-76
2024/01/13 03:47:40;;;;;;;25.80;15.27;;;;;;;0.31;68.10;100101.78;5053826;28;20446;-76
2024/01/13 03:50:08;;;;;;;23.77;14.07;;;;;;;0.35;67.55;100105.81;5053479;28;20454;-75
2024/01/13 03:52:35;;;;;;;21.53;13.73;;;;;;;0.33;67.33;100102.50;5052624;28;20500;-75
2024/01/13 03:55:02;;;;;;;24.70;13.90;;;;;;;0.25;66.29;100099.63;5052889;28;20470;-75
2024/01/13 03:57:29;;;;;;;23.27;13.43;;;;;;;0.22;66.85;100105.09;5053636;28;20438;-77
2024/01/13 03:59:56;;;;;;;24.87;14.50;;;;;;;0.22;66.96;100105.09;5053668;28;20496;-77
2024/01/13 04:02:22;;;;;;;21.03;13.67;;;;;;;0.21;66.92;100108.66;5053016;28;20446;-78
2024/01/13 04:04:50;;;;;;;25.63;15.07;;;;;;;0.27;67.04;100097.72;5053373;28;20900;-77
2024/01/13 04:07:17;;;;;;;22.23;13.33;;;;;;;0.32;67.03;100098.19;5053194;28;20439;-76
2024/01/13 04:09:44;;;;;;;19.40;13.13;;;;;;;0.27;67.05;100102.09;5052987;28;20441;-75
2024/01/13 04:12:11;;;;;;;21.50;14.20;;;;;;;0.29;67.42;100103.69;5052670;28;20982;-74
2024/01/13 04:14:37;;;;;;;23.00;13.93;;;;;;;0.32;67.84;100095.59;5053080;28;20445;-76
2024/01/13 04:17:05;;;;;;;21.70;14.03;;;;;;;0.33;67.13;100091.22;5052740;28;20957;-76
2024/01/13 04:19:31;;;;;;;26.07;14.17;;;;;;;0.25;67.08;100085.72;5052909;28;20882;-77
2024/01/13 04:21:59;;;;;;;27.07;14.60;;;;;;;0.22;67.11;100085.00;5052735;28;20533;-76
2024/01/13 04:24:26;;;;;;;24.47;14.73;;;;;;;0.22;67.20;100079.78;5053258;28;20490;-77
2024/01/13 04:26:53;;;;;;;24.53;14.53;;;;;;;0.25;66.91;100077.91;5052781;28;20438;-77
2024/01/13 04:29:20;;;;;;;18.87;12.87;;;;;;;0.16;66.61;100083.81;5052623;28;20466;-77
2024/01/13 04:31:46;;;;;;;25.43;14.40;;;;;;;0.17;66.72;100086.31;5052219;28;21000;-77
2024/01/13 04:34:13;;;;;;;19.70;13.20;;;;;;;0.13;65.90;100084.91;5052906;28;20450;-77
2024/01/13 04:36:40;;;;;;;21.07;13.40;;;;;;;0.06;66.16;100096.75;5052438;28;20817;-77
2024/01/13 04:39:08;;;;;;;26.23;15.40;;;;;;;0.17;66.20;100095.94;5032709;28;20863;-76
2024/01/13 04:41:35;;;;;;;23.40;13.80;;;;;;;0.22;66.74;100090.22;5049529;28;20837;-77
2024/01/13 04:44:03;;;;;;;21.50;13.13;;;;;;;0.11;66.38;100089.38;5052845;28;20481;-76
2024/01/13 04:46:30;;;;;;;19.23;14.10;;;;;;;0.13;66.22;100104.94;5052471;28;20592;-75
2024/01/13 04:48:56;;;;;;;20.50;13.87;;;;;;;0.11;66.66;100099.84;5052450;28;20496;-73
2024/01/13 04:51:23;;;;;;;21.63;13.87;;;;;;;0.17;66.17;100090.72;5051576;28;20443;-75
2024/01/13 04:53:50;;;;;;;24.87;13.70;;;;;;;0.18;66.44;100095.81;5051962;28;20883;-75
2024/01/13 04:56:18;;;;;;;19.60;12.47;;;;;;;0.10;66.51;100095.56;5051934;28;20447;-75
2024/01/13 04:58:45;;;;;;;19.33;13.03;;;;;;;0.07;66.83;100089.75;5051783;28;20443;-76
2024/01/13 05:01:11;;;;;;;23.40;13.37;;;;;;;0.16;66.86;100097.69;5052159;28;20509;-74
2024/01/13 05:03:38;;;;;;;23.40;13.17;;;;;;;0.16;66.71;100089.06;5051627;28;20524;-74
2024/01/13 05:06:05;;;;;;;19.37;13.37;;;;;;;0.21;66.52;100090.38;5051931;28;20430;-74
2024/01/13 05:08:32;;;;;;;22.83;13.10;;;;;;;0.16;66.26;100089.88;5051316;28;20439;-74
2024/01/13 05:10:59;;;;;;;24.07;14.70;;;;;;;0.19;66.00;100087.03;5051808;28;20435;-73
2024/01/13 05:13:27;;;;;;;22.27;13.73;;;;;;;0.17;66.04;100094.97;5051941;28;20445;-75
2024/01/13 05:15:53;;;;;;;22.37;13.37;;;;;;;0.21;66.55;100087.75;5048521;28;20440;-76
2024/01/13 05:18:20;;;;;;;19.30;13.67;;;;;;;0.00;66.19;100089.38;5041046;28;20443;-74
2024/01/13 05:20:47;;;;;;;21.83;13.87;;;;;;;0.07;66.20;100085.34;5041817;28;20428;-74
2024/01/13 05:23:14;;;;;;;23.27;13.40;;;;;;;0.11;65.76;100084.16;5041941;28;20438;-76
2024/01/13 05:25:40;;;;;;;25.20;14.27;;;;;;;0.11;65.95;100081.56;5040133;28;20862;-76
2024/01/13 05:28:07;;;;;;;28.40;15.53;;;;;;;0.12;66.39;100083.22;5041710;28;20428;-75
2024/01/13 05:30:35;;;;;;;23.73;14.70;;;;;;;0.03;66.72;100089.13;5041700;28;20933;-76
2024/01/13 05:33:02;;;;;;;27.50;14.63;;;;;;;0.10;67.28;100082.50;5040052;28;20436;-75
2024/01/13 05:35:29;;;;;;;23.47;14.13;;;;;;;-0.02;67.19;100075.59;5041047;28;20456;-75
2024/01/13 05:37:56;;;;;;;23.50;14.33;;;;;;;-0.10;67.13;100083.16;5041058;28;20431;-75
2024/01/13 05:40:24;;;;;;;23.47;14.37;;;;;;;-0.09;67.45;100082.22;5039942;28;20511;-76
2024/01/13 05:42:50;;;;;;;21.67;13.67;;;;;;;-0.09;67.67;100084.81;5041136;28;20439;-76
2024/01/13 05:45:17;;;;;;;21.60;13.80;;;;;;;-0.16;68.15;100073.19;5042347;28;20506;-76
2024/01/13 05:47:45;;;;;;;28.67;14.07;;;;;;;-0.28;68.75;100074.13;5040273;28;20808;-76
2024/01/13 05:50:12;;;;;;;26.87;14.80;;;;;;;-0.23;68.79;100067.59;5040197;28;20457;-74
2024/01/13 05:52:38;;;;;;;26.80;15.20;;;;;;;-0.30;68.67;100060.31;5042320;28;20432;-73
2024/01/13 05:55:06;;;;;;;29.83;14.57;;;;;;;-0.38;69.48;100060.06;5040259;28;20440;-76
2024/01/13 05:57:33;;;;;;;22.57;14.40;;;;;;;-0.52;69.44;100049.81;5042593;28;20560;-75
2024/01/13 06:00:00;;;;;;;26.97;14.90;;;;;;;-0.54;69.66;100051.69;5050689;28;20438;-73
2024/01/13 06:02:26;;;;;;;29.43;16.00;;;;;;;-0.51;69.05;100047.09;5050872;28;20485;-75
2024/01/13 06:04:55;;;;;;;23.87;13.67;;;;;;;-0.54;69.47;100046.47;5050968;28;20832;-76
2024/01/13 06:07:22;;;;;;;26.13;14.30;;;;;;;-0.58;69.58;100039.81;5051199;28;20430;-76
2024/01/13 06:09:48;;;;;;;25.57;14.93;;;;;;;-0.63;69.99;100032.34;5051142;28;20489;-73
2024/01/13 06:12:15;;;;;;;21.67;14.40;;;;;;;-0.70;70.18;100036.34;5051591;28;20431;-71
2024/01/13 06:14:42;;;;;;;28.20;15.73;;;;;;;-0.58;70.04;100050.25;5046316;28;20541;-71
2024/01/13 06:17:09;;;;;;;22.83;14.53;;;;;;;-0.55;70.00;100042.22;5051943;28;20566;-70
2024/01/13 06:19:36;;;;;;;26.27;15.53;;;;;;;-0.49;70.02;100039.16;5054547;28;20908;-74
2024/01/13 06:22:04;;;;;;;28.47;15.73;;;;;;;-0.40;69.96;100041.09;5054944;28;20474;-74
2024/01/13 06:24:31;;;;;;;24.53;14.30;;;;;;;-0.31;69.70;100037.78;5054583;28;20608;-74
2024/01/13 06:26:57;;;;;;;25.00;15.10;;;;;;;-0.29;69.68;100051.53;5054269;28;20508;-73
2024/01/13 06:29:24;;;;;;;30.67;15.43;;;;;;;-0.36;69.59;100045.94;5054523;28;20466;-73
2024/01/13 06:31:51;;;;;;;29.37;15.00;;;;;;;-0.37;69.49;100043.44;5054554;28;20435;-73
2024/01/13 06:34:18;;;;;;;22.87;14.83;;;;;;;-0.24;69.07;100041.63;5054663;28;20443;-73
2024/01/13 06:36:44;;;;;;;27.10;13.67;;;;;;;-0.10;67.94;100044.84;5054397;28;20500;-73
2024/01/13 06:39:12;;;;;;;24.73;14.63;;;;;;;0.04;67.49;100038.56;5051121;28;20500;-73
2024/01/13 06:41:39;;;;;;;24.77;15.07;;;;;;;0.12;66.56;100038.81;5054362;28;20439;-74
2024/01/13 06:44:06;;;;;;;25.03;14.17;;;;;;;0.30;66.49;100039.19;5054005;28;20478;-74
2024/01/13 06:46:33;;;;;;;21.77;13.43;;;;;;;0.44;65.52;100037.16;5054069;28;20840;-75
2024/01/13 06:49:00;;;;;;;22.57;14.23;;;;;;;0.50;64.18;100047.16;5054686;28;20461;-73
2024/01/13 06:51:26;;;;;;;22.40;12.50;;;;;;;0.54;63.73;100032.06;5053769;28;20500;-71
2024/01/13 06:53:53;;;;;;;21.57;12.67;;;;;;;0.68;62.72;100061.41;5047909;28;20451;-73
2024/01/13 06:56:21;;;;;;;21.67;13.83;;;;;;;0.77;62.64;100060.66;5040402;28;20561;-73
2024/01/13 06:58:48;;;;;;;18.87;11.93;;;;;;;0.77;61.75;100055.44;5054327;28;20448;-73
2024/01/13 07:01:15;;;;;;;26.40;12.70;;;;;;;0.76;60.71;100042.50;5041353;28;20504;-73
2024/01/13 07:03:42;;;;;;;21.23;13.03;;;;;;;1.03;59.63;100066.47;5052203;28;20451;-72
2024/01/13 07:06:09;;;;;;;20.17;12.90;;;;;;;1.08;60.21;100059.06;5054131;28;20446;-73
2024/01/13 07:08:36;;;;;;;21.63;12.93;;;;;;;1.20;59.92;100074.63;5053480;28;20447;-74
2024/01/13 07:11:03;;;;;;;21.73;12.53;;;;;;;1.08;59.14;100073.00;5049086;28;20447;-78
2024/01/13 07:13:31;;;;;;;24.97;13.33;;;;;;;1.29;59.83;100068.66;5052794;28;20440;-77
2024/01/13 07:15:58;;;;;;;24.63;14.77;;;;;;;1.46;59.08;100075.97;5054206;28;20859;-75
2024/01/13 07:18:24;;;;;;;32.90;15.30;;;;;;;1.46;58.98;100070.75;5053940;28;20599;-76
2024/01/13 07:20:52;;;;;;;33.00;14.67;;;;;;;1.18;58.66;100067.88;5053864;28;20447;-78
2024/01/13 07:23:18;;;;;;;25.33;14.20;;;;;;;1.37;59.35;100066.25;5053622;28;20443;-77
2024/01/13 07:25:45;;;;;;;35.20;14.67;;;;;;;1.53;57.98;100074.53;5053568;28;20486;-78
2024/01/13 07:28:12;;;;;;;31.77;16.43;;;;;;;1.76;58.34;100073.44;5053083;28;20942;-76
2024/01/13 07:30:40;;;;;;;29.83;15.07;;;;;;;2.18;56.34;100083.00;5053854;28;20524;-69
2024/01/13 07:33:07;;;;;;;37.03;17.37;;;;;;;2.20;55.11;100082.88;5053241;28;20504;-77
2024/01/13 07:35:36;;;;;;;37.73;17.03;;;;;;;2.27;56.53;100081.38;5053114;28;20446;-73
2024/01/13 07:38:03;;;;;;;43.60;18.90;;;;;;;2.39;55.64;100089.06;5053087;28;20966;-79
2024/01/13 07:40:30;;;;;;;27.43;15.07;;;;;;;2.81;55.11;100088.00;5053149;28;21012;-79
2024/01/13 07:42:56;;;;;;;27.50;16.50;;;;;;;2.84;53.89;100087.75;5050837;28;20434;-78
2024/01/13 07:45:23;;;;;;;27.07;14.60;;;;;;;3.04;53.30;100092.09;5032996;28;20475;-80
2024/01/13 07:47:51;;;;;;;40.27;14.40;;;;;;;3.24;51.80;100088.56;5037153;28;20931;-79
2024/01/13 07:50:18;;;;;;;25.17;15.00;;;;;;;3.20;50.31;100087.16;5032842;28;20978;-79
2024/01/13 07:52:45;;;;;;;23.97;13.30;;;;;;;3.13;50.58;100086.03;5042431;28;20447;-79
2024/01/13 07:55:11;;;;;;;26.77;14.63;;;;;;;2.93;51.23;100083.47;5052397;28;20591;-79
2024/01/13 07:57:38;;;;;;;25.33;13.33;;;;;;;2.86;50.56;100082.38;5052926;28;20488;-79
2024/01/13 08:00:06;;;;;;;27.70;14.03;;;;;;;2.39;52.07;100073.31;5045732;28;20932;-80
2024/01/13 08:02:33;;;;;;;26.07;13.73;;;;;;;2.60;51.44;100084.59;5032851;28;20452;-79
2024/01/13 08:05:01;;;;;;;20.43;12.70;;;;;;;2.74;50.72;100084.22;5042573;28;20833;-79
2024/01/13 08:07:28;;;;;;;20.03;13.13;;;;;;;2.70;51.00;100077.59;5050623;28;20463;-79
2024/01/13 08:09:54;;;;;;;24.03;13.37;;;;;;;2.71;51.05;100081.91;5049173;28;20435;-80
2024/01/13 08:12:21;;;;;;;22.07;13.27;;;;;;;3.01;50.84;100075.75;5051941;28;20462;-78
2024/01/13 08:14:48;;;;;;;27.37;14.30;;;;;;;3.14;50.09;100079.00;5051218;28;20439;-78
2024/01/13 08:17:15;;;;;;;21.07;13.30;;;;;;;2.89;50.42;100077.69;5051753;28;20451;-80
2024/01/13 08:19:41;;;;;;;22.00;12.47;;;;;;;2.97;49.95;100085.72;5052286;28;20450;-78
2024/01/13 08:22:09;;;;;;;18.23;12.33;;;;;;;3.04;50.47;100080.75;5051226;28;20735;-80
2024/01/13 08:24:36;;;;;;;19.57;12.97;;;;;;;3.04;50.38;100076.34;5052368;28;20474;-79
2024/01/13 08:27:03;;;;;;;20.87;13.97;;;;;;;3.47;48.86;100084.69;5051418;28;20443;-79
2024/01/13 08:29:30;;;;;;;23.10;11.87;;;;;;;3.38;47.90;100089.94;5052229;28;20278;-79
2024/01/13 08:31:57;;;;;;;29.90;13.70;;;;;;;3.40;48.68;100080.97;5052520;28;20660;-79
2024/01/13 08:34:24;;;;;;;21.67;14.03;;;;;;;3.62;48.18;100096.47;5052179;28;20192;-79
2024/01/13 08:36:50;;;;;;;25.83;14.57;;;;;;;3.98;47.29;100082.66;5052454;28;20196;-78
2024/01/13 08:39:19;;;;;;;21.60;14.00;;;;;;;4.41;47.05;100087.41;5051803;28;20265;-78
2024/01/13 08:41:46;;;;;;;28.90;14.77;;;;;;;4.00;46.54;100091.22;5052515;28;20245;-77
2024/01/13 08:44:12;;;;;;;22.30;13.30;;;;;;;3.99;46.76;100086.94;5052268;28;20242;-77
2024/01/13 08:46:39;;;;;;;18.67;13.03;;;;;;;3.84;46.55;100083.06;5052709;28;20438;-78
2024/01/13 08:49:07;;;;;;;19.37;12.97;;;;;;;3.82;46.85;100095.50;5052216;28;20246;-78
2024/01/13 08:51:33;;;;;;;24.00;13.90;;;;;;;3.92;47.53;100095.50;5052571;28;20228;-79
2024/01/13 08:54:00;;;;;;;23.17;14.57;;;;;;;3.91;47.05;100091.22;5052155;28;20231;-78
2024/01/13 08:56:28;;;;;;;21.50;12.80;;;;;;;4.05;47.07;100090.78;5052381;28;20571;-78
2024/01/13 08:58:55;;;;;;;16.10;12.37;;;;;;;4.11;46.87;100080.53;5051788;28;20298;-79
2024/01/13 09:01:22;;;;;;;20.27;12.07;;;;;;;4.19;46.54;100088.56;5051764;28;20192;-78
2024/01/13 09:03:48;;;;;;;17.80;12.67;;;;;;;4.24;46.20;100081.06;5051960;28;20199;-78
2024/01/13 09:06:15;;;;;;;18.43;12.93;;;;;;;4.50;45.56;100081.28;5052169;28;20282;-78
2024/01/13 09:08:42;;;;;;;45.37;12.60;;;;;;;4.79;45.29;100069.66;5051939;28;20188;-78
2024/01/13 09:11:09;;;;;;;23.50;12.60;;;;;;;4.99;44.92;100058.06;5052262;28;20629;-78
2024/01/13 09:13:37;;;;;;;23.77;13.90;;;;;;;5.09;45.08;100050.97;5052064;28;20192;-78
2024/01/13 09:16:04;;;;;;;20.47;12.93;;;;;;;5.09;44.10;100048.34;5051685;28;20202;-79
2024/01/13 09:18:31;;;;;;;15.40;11.43;;;;;;;4.41;45.12;100046.16;5051667;28;20192;-78
2024/01/13 09:20:57;;;;;;;27.47;12.40;;;;;;;4.50;44.93;100037.38;5051478;28;20193;-77
2024/01/13 09:23:24;;;;;;;23.63;12.80;;;;;;;4.58;44.24;100034.06;5051424;28;20196;-77
2024/01/13 09:25:51;;;;;;;29.90;12.67;;;;;;;4.95;43.98;100025.13;5051241;28;20221;-78
2024/01/13 09:28:17;;;;;;;31.20;13.20;;;;;;;5.24;43.45;100023.13;5051920;28;20196;-78
2024/01/13 09:30:46;;;;;;;18.17;11.33;;;;;;;4.71;43.12;100011.66;5051730;28;20228;-78
2024/01/13 09:33:12;;;;;;;18.83;12.53;;;;;;;4.64;43.34;100009.78;5052022;28;20289;-79
2024/01/13 09:35:40;;;;;;;20.40;13.37;;;;;;;4.29;44.43;100002.59;5049495;28;20200;-77
2024/01/13 09:38:07;;;;;;;20.33;13.37;;;;;;;4.20;44.99;99989.47;5050268;28;20204;-77
2024/01/13 09:40:39;;;;;;;21.07;11.57;;;;;;;4.51;44.86;99975.94;5051013;28;20231;-78
2024/01/13 09:43:16;;;;;;;18.30;11.83;;;;;;;4.64;43.79;99984.31;5051211;28;20185;-78
2024/01/13 09:45:48;;;;;;;21.77;12.93;;;;;;;4.70;44.06;99981.09;5051218;28;20262;-78
2024/01/13 09:48:17;;;;;;;20.47;12.20;;;;;;;4.72;44.05;99975.69;5051496;28;20189;-79
2024/01/13 09:50:46;;;;;;;28.97;12.60;;;;;;;4.83;43.93;99975.47;5052224;28;20196;-78
2024/01/13 09:53:22;;;;;;;29.23;12.00;;;;;;;5.13;43.34;99957.53;5055008;28;20196;-76
2024/01/13 09:55:55;;;;;;;17.50;12.17;;;;;;;4.75;44.58;99955.16;5054809;28;20184;-77
2024/01/13 09:58:22;;;;;;;19.30;11.97;;;;;;;4.60;44.29;99945.28;5055280;28;20184;-79
2024/01/13 10:00:53;;;;;;;68.57;13.80;;;;;;;4.40;44.80;99944.56;5054839;28;20246;-78
2024/01/13 10:03:20;;;;;;;20.07;11.93;;;;;;;4.51;45.54;99936.47;5055214;28;20207;-79
2024/01/13 10:05:48;;;;;;;14.23;10.77;;;;;;;4.81;43.86;99943.22;5054804;28;20696;-78
2024/01/13 10:08:14;;;;;;;12.53;10.00;;;;;;;4.98;43.79;99934.50;5055123;28;20196;-79
2024/01/13 10:10:42;;;;;;;14.07;11.07;;;;;;;4.79;44.01;99934.66;5054969;28;20188;-79
2024/01/13 10:13:08;;;;;;;16.97;10.90;;;;;;;4.83;43.43;99930.75;5055051;28;20192;-77
2024/01/13 10:15:35;;;;;;;18.13;12.13;;;;;;;4.60;44.32;99940.84;5054692;28;20207;-78
2024/01/13 10:18:04;;;;;;;18.67;12.50;;;;;;;4.61;43.25;99936.41;5054803;28;20193;-79
2024/01/13 10:20:31;;;;;;;21.63;13.70;;;;;;;4.86;43.68;99920.72;5054793;28;20207;-78
2024/01/13 10:22:57;;;;;;;26.67;14.13;;;;;;;4.77;43.51;99926.91;5054975;28;20192;-79
2024/01/13 10:25:25;;;;;;;16.17;10.73;;;;;;;4.96;43.03;99934.66;5054820;28;20331;-77
2024/01/13 10:27:51;;;;;;;28.73;10.87;;;;;;;4.62;43.28;99936.25;5054414;28;20580;-78
2024/01/13 10:30:18;;;;;;;14.93;11.20;;;;;;;4.45;44.55;99921.28;5054569;28;20236;-78
2024/01/13 10:32:47;;;;;;;19.50;11.73;;;;;;;4.39;45.06;99927.13;5054594;28;20196;-78
2024/01/13 10:35:17;;;;;;;14.83;10.77;;;;;;;4.19;45.15;99907.16;5054528;28;20197;-79
2024/01/13 10:37:44;;;;;;;31.43;12.67;;;;;;;4.24;45.52;99912.81;5046563;28;20275;-79
2024/01/13 10:40:11;;;;;;;17.43;11.33;;;;;;;4.30;45.22;99917.47;5034489;28;20193;-78
2024/01/13 10:42:39;;;;;;;18.67;13.27;;;;;;;4.26;46.04;99910.03;5034526;28;20661;-78
2024/01/13 10:45:09;;;;;;;17.73;12.17;;;;;;;4.35;46.61;99899.47;5034778;28;20201;-78
2024/01/13 10:47:42;;;;;;;20.33;11.70;;;;;;;4.38;45.74;99896.53;5034748;28;20189;-79
2024/01/13 10:50:11;;;;;;;19.50;12.07;;;;;;;4.31;45.50;99911.25;5034272;28;20281;-78
2024/01/13 10:52:50;;;;;;;29.57;12.73;;;;;;;4.35;45.75;99873.19;5034087;28;20661;-79
2024/01/13 10:55:17;;;;;;;23.83;12.87;;;;;;;4.37;44.83;99902.78;5034188;28;20189;-78
2024/01/13 10:57:46;;;;;;;17.17;11.87;;;;;;;4.32;44.81;99891.88;5034443;28;20193;-79
2024/01/13 11:00:13;;;;;;;23.40;11.60;;;;;;;4.35;44.71;99894.22;5034267;28;20204;-78
2024/01/13 11:02:41;;;;;;;19.87;12.20;;;;;;;4.36;44.68;99893.25;5033278;28;20718;-79
2024/01/13 11:05:10;;;;;;;17.13;11.00;;;;;;;4.59;44.21;99889.22;5034325;28;20189;-79
2024/01/13 11:07:37;;;;;;;23.73;13.73;;;;;;;4.76;44.69;99891.03;5034065;28;20661;-79
2024/01/13 11:10:12;;;;;;;18.17;12.30;;;;;;;4.94;44.59;99878.72;5033902;28;20263;-77
2024/01/13 11:12:43;;;;;;;19.83;11.63;;;;;;;4.82;43.45;99872.00;5033666;28;20631;-78
2024/01/13 11:15:16;;;;;;;15.20;12.13;;;;;;;4.93;43.91;99868.31;5033951;28;20196;-79
2024/01/13 11:17:46;;;;;;;14.67;11.20;;;;;;;5.21;43.60;99854.91;5034231;28;20636;-78